This is the latest recevied weather packets stored in our database for station/object SM2FXT-13. If no packets are shown the sender has not sent any weather packets the latest 10 day(s).
| Time | Temp. | Humidity | Pressure | Rain* | Wind** | Luminosity | Snow |
|---|---|---|---|---|---|---|---|
| 1777632003 | 18.33° C | 44% | 1013.2 hPa | 0 mm | - | - | - |
| 1777627203 | 18.33° C | 40% | 1013.6 hPa | 0 mm | - | - | - |
| 1777621203 | 16.67° C | 46% | 1014.5 hPa | 0 mm | - | - | - |
| 1777618204 | 15° C | 55% | 1015 hPa | 0 mm | - | - | - |
| 1777615803 | 14.44° C | 58% | 1015.3 hPa | 0 mm | - | - | - |
| 1777611003 | 9.44° C | 78% | 1015.4 hPa | 0 mm | - | - | - |
| 1777603804 | 6.11° C | 88% | 1016.8 hPa | 0 mm | - | - | - |
| 1777597804 | 7.78° C | 83% | 1017.3 hPa | 0 mm | - | - | - |
| 1777596603 | 7.78° C | 84% | 1017.5 hPa | 0 mm | - | - | - |
| 1777596004 | 7.78° C | 84% | 1017.7 hPa | 0 mm | - | - | - |
| 1777594803 | 7.22° C | 85% | 1017.8 hPa | 0 mm | - | - | - |
| 1777581003 | 11.11° C | 70% | 1018.8 hPa | 0 mm | - | - | - |
| 1777580402 | 11.11° C | 70% | 1018.8 hPa | 0 mm | - | - | - |
| 1777573203 | 13.89° C | 62% | 1018.8 hPa | 0 mm | - | - | - |
| 1777570802 | 15° C | 60% | 1018.6 hPa | 0 mm | - | - | - |
| 1777569002 | 16.11° C | 58% | 1018.5 hPa | 0 mm | - | - | - |
| 1777567202 | 16.11° C | 57% | 1018.4 hPa | 0 mm | - | - | - |
| 1777560003 | 20° C | 50% | 1018.8 hPa | 0 mm | - | - | - |
| 1777558803 | 19.44° C | 52% | 1018.7 hPa | 0 mm | - | - | - |
| 1777556403 | 19.44° C | 52% | 1018.9 hPa | 0 mm | - | - | - |
| 1777554003 | 18.33° C | 55% | 1019.1 hPa | 0 mm | - | - | - |
| 1777551003 | 19.44° C | 52% | 1018.8 hPa | 0 mm | - | - | - |
| 1777550404 | 19.44° C | 52% | 1018.7 hPa | 0 mm | - | - | - |
| 1777545603 | 18.33° C | 56% | 1018.9 hPa | 0 mm | - | - | - |
| 1777542004 | 15.56° C | 63% | 1019.1 hPa | 0 mm | - | - | - |
* Rain latest hour (hover to see other rain measurements)
** Current wind speed in m/s (hover to see current wind gust speed)